Weather at Huahine-Fare Airport

Public forecast

Using degrees Celsius for public forecast. Weather courtesy of forecast.io.

Closest aviation weather report (METAR) to Huahine-Fare Airport

Closest report is Faa'a International Airport, 96.4 nm (178.6 km) ESE. Retrieved 2022/07/04 12:30 UTC (0 seconds ago):

NTAA 041230Z 06010KT 030V090 9999 -RA FEW010 SCT036 23/21 Q1014 NOSIG

Closest aviation forecast (TAF) to Huahine-Fare Airport

Closest forecast is Faa'a International Airport, 96.4 nm (178.6 km) ESE. Retrieved 2022/07/04 12:16 UTC (10 minutes ago):

TAF NTAA 041100Z 0412/0518 VRB05KT 9999 FEW025 SCT090 BECMG 0413/0415 SCT020 BKN060 PROB30 TEMPO 0415/0502 4000 SHRA BECMG 0418/0420 06015KT BECMG 0502/0504 FEW025 BECMG 0504/0506 VRB05KT